Overview Statistics Trail Chart Weather Telemetry Raw packets
 

This is the latest recevied weather packets stored in our database for station/object LKCS. If no packets are shown the sender has not sent any weather packets the latest 10 day(s).

<< 16 17 18 19 20 21 22 >>
Time Temp. Humidity Pressure Rain* Wind** Luminosity Snow
1788037387 15° C 82% 1017 hPa - - - -
1788035585 16.11° C 77% 1017 hPa - - - -
1788033786 16.11° C 77% 1017 hPa - - - -
1788031951 17.78° C 63% 1017 hPa - - - -
1788030161 17.22° C 67% 1017 hPa - - - -
1788028384 17.78° C 63% 1016 hPa - - - -
1788026586 18.89° C 59% 1016 hPa - - - -
1788024784 21.11° C 52% 1016 hPa - - - -
1788022986 22.22° C 49% 1016 hPa - - - -
1788021185 23.89° C 41% 1016 hPa - - - -
1788019387 23.89° C 44% 1016 hPa - - - -
1788018902 25° C 38% 1016 hPa - - - -
1788015787 23.89° C 41% 1016 hPa - - - -
1788015184 25° C 38% 1016 hPa - - - -
1788013958 23.89° C 44% 1016 hPa - - - -
1788012195 22.78° C 49% 1016 hPa - - - -
1788010384 22.78° C 46% 1017 hPa - - - -
1788008571 23.89° C 44% 1017 hPa - - - -
1788007385 22.78° C 46% 1017 hPa - - - -
1788006785 22.78° C 46% 1017 hPa - - - -
1788004992 23.89° C 44% 1017 hPa - - - -
1788004085 23.89° C 44% 1017 hPa - - - -
1788003157 22.78° C 46% 1017 hPa - - - -
1788001393 22.78° C 49% 1018 hPa - - - -
1788000185 22.22° C 53% 1018 hPa - - - -

* Rain since midnight (hover to see other rain measurements)
** Current wind speed in m/s (hover to see current wind gust speed)